createdAt,value
2022-09-04T00:00:28.424Z,18.74
2022-09-04T00:01:28.421Z,18.72
2022-09-04T00:02:28.419Z,18.74
2022-09-04T00:03:28.392Z,18.72
2022-09-04T00:04:28.530Z,18.72
2022-09-04T00:05:28.364Z,18.71
2022-09-04T00:06:28.360Z,18.69
2022-09-04T00:07:28.349Z,18.66
2022-09-04T00:08:28.339Z,18.65
2022-09-04T00:09:28.305Z,18.64
2022-09-04T00:10:28.295Z,18.65
2022-09-04T00:11:28.283Z,18.66
2022-09-04T00:12:28.285Z,18.68
2022-09-04T00:13:28.284Z,18.71
2022-09-04T00:14:28.258Z,18.71
2022-09-04T00:15:28.225Z,18.71
2022-09-04T00:16:28.293Z,18.71
2022-09-04T00:17:28.207Z,18.71
2022-09-04T00:18:28.205Z,18.71
2022-09-04T00:19:28.172Z,18.69
2022-09-04T00:20:28.163Z,18.69
2022-09-04T00:21:28.169Z,18.68
2022-09-04T00:22:28.150Z,18.68
2022-09-04T00:23:28.133Z,18.66
2022-09-04T00:24:28.127Z,18.66
2022-09-04T00:25:28.105Z,18.66
2022-09-04T00:26:28.086Z,18.65
2022-09-04T00:27:28.087Z,18.64
2022-09-04T00:28:28.086Z,18.65
2022-09-04T00:29:28.067Z,18.64
2022-09-04T00:30:28.103Z,18.65
2022-09-04T00:31:28.023Z,18.65
2022-09-04T00:32:28.019Z,18.65
2022-09-04T00:33:28.019Z,18.65
2022-09-04T00:34:27.998Z,18.64
2022-09-04T00:35:27.983Z,18.64
2022-09-04T00:36:27.952Z,18.60
2022-09-04T00:37:27.947Z,18.59
2022-09-04T00:38:27.965Z,18.60
2022-09-04T00:39:27.958Z,18.59
2022-09-04T00:40:31.244Z,18.59
2022-09-04T00:41:27.883Z,18.57
2022-09-04T00:42:27.897Z,18.56
2022-09-04T00:43:27.871Z,18.54
2022-09-04T00:44:27.865Z,18.54
2022-09-04T00:45:27.926Z,18.53
2022-09-04T00:46:30.250Z,18.51
2022-09-04T00:47:27.810Z,18.51
2022-09-04T00:48:27.816Z,18.50
2022-09-04T00:49:27.793Z,18.50
2022-09-04T00:50:27.772Z,18.49
2022-09-04T00:51:27.753Z,18.49
2022-09-04T00:52:31.373Z,18.47
2022-09-04T00:53:28.757Z,18.49
2022-09-04T00:54:27.722Z,18.46
2022-09-04T00:55:27.701Z,18.46
2022-09-04T00:56:27.693Z,18.46
2022-09-04T00:57:27.686Z,18.47
2022-09-04T00:58:27.698Z,18.44
2022-09-04T00:59:27.667Z,18.42
2022-09-04T01:00:27.656Z,18.44
2022-09-04T01:01:27.745Z,18.46
2022-09-04T01:02:27.692Z,18.46
2022-09-04T01:03:27.628Z,18.44
2022-09-04T01:04:27.596Z,18.42
2022-09-04T01:05:27.572Z,18.41
2022-09-04T01:06:27.575Z,18.41
2022-09-04T01:07:27.564Z,18.42
2022-09-04T01:08:27.594Z,18.39
2022-09-04T01:09:27.519Z,18.39
2022-09-04T01:10:27.527Z,18.41
2022-09-04T01:11:27.507Z,18.42
2022-09-04T01:12:27.490Z,18.41
2022-09-04T01:13:27.544Z,18.41
2022-09-04T01:14:27.468Z,18.39
2022-09-04T01:15:27.431Z,18.38
2022-09-04T01:16:27.476Z,18.36
2022-09-04T01:17:27.409Z,18.39
2022-09-04T01:18:27.424Z,18.39
2022-09-04T01:19:27.392Z,18.38
2022-09-04T01:20:27.373Z,18.38
2022-09-04T01:21:27.374Z,18.36
2022-09-04T01:22:27.354Z,18.36
2022-09-04T01:23:27.366Z,18.36
2022-09-04T01:24:27.335Z,18.36
2022-09-04T01:25:27.309Z,18.35
2022-09-04T01:26:27.304Z,18.35
2022-09-04T01:27:27.300Z,18.35
2022-09-04T01:28:27.280Z,18.34
2022-09-04T01:29:27.260Z,18.32
2022-09-04T01:30:27.255Z,18.32
2022-09-04T01:31:27.281Z,18.31
2022-09-04T01:32:27.212Z,18.31
2022-09-04T01:33:27.216Z,18.29
2022-09-04T01:34:27.204Z,18.26
2022-09-04T01:35:27.188Z,18.29
2022-09-04T01:36:27.160Z,18.28
2022-09-04T01:37:27.166Z,18.26
2022-09-04T01:38:27.163Z,18.26
2022-09-04T01:39:27.173Z,18.28
2022-09-04T01:40:35.994Z,18.26
2022-09-04T01:41:28.099Z,18.26
2022-09-04T01:42:27.095Z,18.26
2022-09-04T01:43:27.103Z,18.28
2022-09-04T01:44:27.061Z,18.29
2022-09-04T01:45:27.100Z,18.26
2022-09-04T01:46:27.030Z,18.26
2022-09-04T01:47:27.033Z,18.25
2022-09-04T01:48:27.011Z,18.20
2022-09-04T01:49:27.012Z,18.19
2022-09-04T01:50:26.992Z,18.19
2022-09-04T01:51:26.983Z,18.17
2022-09-04T01:52:26.963Z,18.17
2022-09-04T01:53:26.966Z,18.17
2022-09-04T01:54:27.941Z,18.17
2022-09-04T01:55:26.920Z,18.19
2022-09-04T01:56:26.897Z,18.19
2022-09-04T01:57:26.892Z,18.19
2022-09-04T01:58:26.894Z,18.19
2022-09-04T01:59:26.860Z,18.20
2022-09-04T02:00:26.853Z,18.20
2022-09-04T02:01:26.881Z,18.20
2022-09-04T02:02:26.891Z,18.19
2022-09-04T02:03:26.832Z,18.20
2022-09-04T02:04:26.803Z,18.20
2022-09-04T02:05:26.793Z,18.20
2022-09-04T02:06:26.783Z,18.16
2022-09-04T02:07:26.751Z,18.14
2022-09-04T02:08:26.808Z,18.16
2022-09-04T02:09:26.728Z,18.13
2022-09-04T02:10:26.710Z,18.10
2022-09-04T02:11:28.065Z,18.07
2022-09-04T02:12:26.689Z,18.07
2022-09-04T02:13:26.701Z,18.05
2022-09-04T02:14:26.660Z,18.07
2022-09-04T02:15:26.666Z,18.04
2022-09-04T02:16:26.841Z,18.02
2022-09-04T02:17:26.619Z,18.01
2022-09-04T02:18:26.635Z,18.01
2022-09-04T02:19:26.605Z,18.02
2022-09-04T02:20:26.580Z,18.01
2022-09-04T02:21:26.570Z,18.02
2022-09-04T02:22:26.548Z,18.02
2022-09-04T02:23:26.581Z,18.02
2022-09-04T02:24:26.529Z,18.04
2022-09-04T02:25:26.533Z,18.04
2022-09-04T02:26:26.512Z,18.05
2022-09-04T02:27:26.501Z,18.04
2022-09-04T02:28:26.548Z,18.01
2022-09-04T02:29:26.468Z,18.02
2022-09-04T02:30:26.457Z,18.01
2022-09-04T02:31:26.499Z,18.01
2022-09-04T02:32:26.433Z,18.01
2022-09-04T02:33:26.418Z,18.02
2022-09-04T02:34:26.397Z,18.04
2022-09-04T02:35:26.386Z,18.02
2022-09-04T02:36:26.368Z,18.04
2022-09-04T02:37:26.378Z,18.04
2022-09-04T02:38:26.421Z,18.05
2022-09-04T02:39:26.368Z,18.07
2022-09-04T02:40:27.534Z,18.05
2022-09-04T02:41:26.331Z,18.04
2022-09-04T02:42:26.305Z,18.02
2022-09-04T02:43:26.298Z,18.02
2022-09-04T02:44:26.267Z,18.02
2022-09-04T02:45:26.262Z,18.01
2022-09-04T02:46:26.276Z,18.02
2022-09-04T02:47:26.242Z,18.02
2022-09-04T02:48:26.241Z,18.01
2022-09-04T02:49:26.211Z,18.01
2022-09-04T02:50:26.188Z,17.99
2022-09-04T02:51:26.176Z,18.01
2022-09-04T02:52:26.170Z,18.01
2022-09-04T02:53:26.180Z,18.01
2022-09-04T02:54:26.141Z,18.01
2022-09-04T02:55:26.126Z,18.01
2022-09-04T02:56:26.108Z,18.01
2022-09-04T02:57:26.099Z,18.01
2022-09-04T02:58:26.249Z,17.99
2022-09-04T02:59:26.090Z,17.98
2022-09-04T03:00:26.071Z,17.98
2022-09-04T03:01:26.070Z,17.99
2022-09-04T03:02:26.063Z,17.99
2022-09-04T03:03:26.043Z,17.96
2022-09-04T03:04:26.020Z,17.95
2022-09-04T03:05:26.010Z,17.95
2022-09-04T03:06:25.979Z,17.94
2022-09-04T03:07:25.976Z,17.94
2022-09-04T03:08:26.096Z,17.95
2022-09-04T03:09:25.937Z,17.91
2022-09-04T03:10:25.929Z,17.92
2022-09-04T03:11:25.938Z,17.91
2022-09-04T03:12:25.916Z,17.91
2022-09-04T03:13:25.907Z,17.89
2022-09-04T03:14:25.890Z,17.87
2022-09-04T03:15:25.878Z,17.86
2022-09-04T03:16:25.897Z,17.83
2022-09-04T03:17:25.852Z,17.80
2022-09-04T03:18:25.837Z,17.77
2022-09-04T03:19:25.832Z,17.79
2022-09-04T03:20:25.805Z,17.83
2022-09-04T03:21:25.799Z,17.83
2022-09-04T03:22:25.777Z,17.84
2022-09-04T03:23:25.791Z,17.84
2022-09-04T03:24:25.736Z,17.81
2022-09-04T03:25:25.750Z,17.80
2022-09-04T03:26:25.728Z,17.80
2022-09-04T03:27:25.738Z,17.77
2022-09-04T03:28:25.849Z,17.76
2022-09-04T03:29:25.676Z,17.74
2022-09-04T03:30:25.666Z,17.73
2022-09-04T03:31:25.678Z,17.71
2022-09-04T03:32:25.656Z,17.74
2022-09-04T03:33:25.635Z,17.73
2022-09-04T03:34:25.622Z,17.74
2022-09-04T03:35:25.611Z,17.73
2022-09-04T03:36:25.597Z,17.73
2022-09-04T03:37:25.589Z,17.74
2022-09-04T03:38:25.756Z,17.73
2022-09-04T03:39:25.587Z,17.71
2022-09-04T03:40:25.526Z,17.70
2022-09-04T03:41:25.515Z,17.70
2022-09-04T03:42:25.505Z,17.66
2022-09-04T03:43:25.519Z,17.66
2022-09-04T03:44:25.485Z,17.66
2022-09-04T03:45:25.466Z,17.65
2022-09-04T03:46:25.501Z,17.62
2022-09-04T03:47:25.465Z,17.63
2022-09-04T03:48:25.541Z,17.63
2022-09-04T03:49:25.428Z,17.62
2022-09-04T03:50:25.417Z,17.62
2022-09-04T03:51:25.397Z,17.62
2022-09-04T03:52:25.371Z,17.60
2022-09-04T03:53:25.389Z,17.63
2022-09-04T03:54:25.358Z,17.63
2022-09-04T03:55:25.347Z,17.63
2022-09-04T03:56:25.337Z,17.63
2022-09-04T03:57:25.330Z,17.62
2022-09-04T03:58:25.488Z,17.62
2022-09-04T03:59:25.293Z,17.63
2022-09-04T04:00:25.266Z,17.63
2022-09-04T04:01:25.391Z,17.63
2022-09-04T04:02:25.287Z,17.62
2022-09-04T04:03:25.267Z,17.60
2022-09-04T04:04:25.220Z,17.60
2022-09-04T04:05:25.203Z,17.60
2022-09-04T04:06:25.207Z,17.60
2022-09-04T04:07:25.196Z,17.54
2022-09-04T04:08:25.290Z,17.55
2022-09-04T04:09:25.153Z,17.53
2022-09-04T04:10:25.154Z,17.49
2022-09-04T04:11:25.142Z,17.47
2022-09-04T04:12:25.111Z,17.46
2022-09-04T04:13:25.114Z,17.45
2022-09-04T04:14:25.108Z,17.45
2022-09-04T04:15:25.086Z,17.43
2022-09-04T04:16:25.572Z,17.43
2022-09-04T04:17:25.063Z,17.42
2022-09-04T04:18:25.132Z,17.40
2022-09-04T04:19:25.023Z,17.43
2022-09-04T04:20:25.026Z,17.40
2022-09-04T04:21:25.012Z,17.42
2022-09-04T04:22:24.991Z,17.42
2022-09-04T04:23:24.986Z,17.42
2022-09-04T04:24:24.985Z,17.43
2022-09-04T04:25:24.957Z,17.45
2022-09-04T04:26:24.945Z,17.47
2022-09-04T04:27:24.927Z,17.45
2022-09-04T04:28:25.006Z,17.45
2022-09-04T04:29:24.906Z,17.43
2022-09-04T04:30:24.873Z,17.42
2022-09-04T04:31:24.916Z,17.42
2022-09-04T04:32:24.861Z,17.40
2022-09-04T04:33:24.852Z,17.39
2022-09-04T04:34:24.835Z,17.40
2022-09-04T04:35:24.824Z,17.39
2022-09-04T04:36:24.813Z,17.39
2022-09-04T04:37:24.791Z,17.38
2022-09-04T04:38:24.927Z,17.38
2022-09-04T04:39:28.189Z,17.39
2022-09-04T04:40:25.761Z,17.39
2022-09-04T04:41:24.753Z,17.40
2022-09-04T04:42:24.730Z,17.39
2022-09-04T04:43:24.744Z,17.39
2022-09-04T04:44:24.705Z,17.36
2022-09-04T04:45:24.694Z,17.36
2022-09-04T04:46:24.701Z,17.39
2022-09-04T04:47:24.658Z,17.36
2022-09-04T04:48:24.829Z,17.36
2022-09-04T04:49:24.654Z,17.36
2022-09-04T04:50:24.618Z,17.36
2022-09-04T04:51:24.622Z,17.35
2022-09-04T04:52:24.589Z,17.36
2022-09-04T04:53:24.600Z,17.35
2022-09-04T04:54:24.560Z,17.35
2022-09-04T04:55:24.551Z,17.33
2022-09-04T04:56:24.541Z,17.33
2022-09-04T04:57:24.536Z,17.33
2022-09-04T04:58:24.596Z,17.30
2022-09-04T04:59:24.524Z,17.30
2022-09-04T05:00:27.691Z,17.30
2022-09-04T05:01:24.523Z,17.28
2022-09-04T05:02:24.572Z,17.30
2022-09-04T05:03:24.459Z,17.27
2022-09-04T05:04:24.452Z,17.25
2022-09-04T05:05:24.435Z,17.28
2022-09-04T05:06:24.419Z,17.28
2022-09-04T05:07:24.398Z,17.28
2022-09-04T05:08:24.431Z,17.30
2022-09-04T05:09:24.390Z,17.28
2022-09-04T05:10:24.386Z,17.30
2022-09-04T05:11:24.390Z,17.32
2022-09-04T05:12:24.329Z,17.33
2022-09-04T05:13:24.363Z,17.33
2022-09-04T05:14:24.319Z,17.33
2022-09-04T05:15:24.302Z,17.35
2022-09-04T05:16:24.317Z,17.36
2022-09-04T05:17:24.281Z,17.38
2022-09-04T05:18:24.353Z,17.39
2022-09-04T05:19:24.239Z,17.38
2022-09-04T05:20:24.238Z,17.38
2022-09-04T05:21:24.236Z,17.38
2022-09-04T05:22:24.211Z,17.38
2022-09-04T05:23:24.967Z,17.38
2022-09-04T05:24:24.235Z,17.36
2022-09-04T05:25:24.156Z,17.38
2022-09-04T05:26:24.152Z,17.39
2022-09-04T05:27:24.141Z,17.39
2022-09-04T05:28:24.400Z,17.39
2022-09-04T05:29:24.120Z,17.42
2022-09-04T05:30:24.098Z,17.43
2022-09-04T05:31:24.172Z,17.45
2022-09-04T05:32:24.088Z,17.45
2022-09-04T05:33:24.089Z,17.43
2022-09-04T05:34:24.052Z,17.40
2022-09-04T05:35:24.039Z,17.40
2022-09-04T05:36:24.040Z,17.40
2022-09-04T05:37:24.018Z,17.39
2022-09-04T05:38:24.161Z,17.35
2022-09-04T05:39:24.033Z,17.35
2022-09-04T05:40:23.981Z,17.36
2022-09-04T05:41:23.983Z,17.36
2022-09-04T05:42:23.968Z,17.36
2022-09-04T05:43:23.963Z,17.38
2022-09-04T05:44:23.930Z,17.39
2022-09-04T05:45:23.921Z,17.40
2022-09-04T05:46:23.969Z,17.42
2022-09-04T05:47:27.437Z,17.42
2022-09-04T05:48:25.022Z,17.43
2022-09-04T05:49:23.848Z,17.45
2022-09-04T05:50:23.858Z,17.42
2022-09-04T05:51:31.405Z,17.40
2022-09-04T05:52:23.812Z,17.43
2022-09-04T05:53:23.835Z,17.45
2022-09-04T05:54:26.462Z,17.46
2022-09-04T05:55:23.795Z,17.47
2022-09-04T05:56:23.782Z,17.53
2022-09-04T05:57:23.741Z,17.53
2022-09-04T05:58:23.762Z,17.51
2022-09-04T05:59:23.743Z,17.53
2022-09-04T06:00:23.721Z,17.51
2022-09-04T06:01:23.786Z,17.54
2022-09-04T06:02:23.810Z,17.53
2022-09-04T06:03:23.690Z,17.54
2022-09-04T06:04:23.675Z,17.57
2022-09-04T06:05:23.675Z,17.57
2022-09-04T06:06:23.641Z,17.60
2022-09-04T06:07:23.620Z,17.62
2022-09-04T06:08:28.348Z,17.60
2022-09-04T06:09:24.589Z,17.58
2022-09-04T06:10:23.578Z,17.58
2022-09-04T06:11:23.595Z,17.60
2022-09-04T06:12:23.562Z,17.63
2022-09-04T06:13:23.594Z,17.62
2022-09-04T06:14:23.541Z,17.63
2022-09-04T06:15:23.523Z,17.65
2022-09-04T06:16:23.562Z,17.66
2022-09-04T06:17:23.506Z,17.66
2022-09-04T06:18:23.504Z,17.68
2022-09-04T06:19:23.458Z,17.70
2022-09-04T06:20:23.450Z,17.73
2022-09-04T06:21:23.447Z,17.71
2022-09-04T06:22:23.432Z,17.74
2022-09-04T06:23:23.420Z,17.76
2022-09-04T06:24:23.415Z,17.79
2022-09-04T06:25:23.573Z,17.81
2022-09-04T06:26:23.391Z,17.84
2022-09-04T06:27:23.383Z,17.84
2022-09-04T06:28:23.431Z,17.86
2022-09-04T06:29:23.341Z,17.86
2022-09-04T06:30:23.333Z,17.86
2022-09-04T06:31:23.362Z,17.86
2022-09-04T06:32:23.300Z,17.89
2022-09-04T06:33:23.331Z,17.95
2022-09-04T06:34:23.280Z,17.96
2022-09-04T06:35:23.258Z,18.01
2022-09-04T06:36:23.258Z,18.02
2022-09-04T06:37:23.232Z,18.05
2022-09-04T06:38:23.283Z,18.05
2022-09-04T06:39:23.260Z,18.10
2022-09-04T06:40:23.202Z,18.13
2022-09-04T06:41:23.179Z,18.17
2022-09-04T06:42:23.159Z,18.21
2022-09-04T06:43:23.159Z,18.25
2022-09-04T06:44:24.148Z,18.31
2022-09-04T06:45:23.118Z,18.35
2022-09-04T06:46:23.163Z,18.38
2022-09-04T06:47:23.106Z,18.39
2022-09-04T06:48:23.109Z,18.39
2022-09-04T06:49:23.068Z,18.41
2022-09-04T06:50:23.083Z,18.46
2022-09-04T06:51:23.073Z,18.46
2022-09-04T06:52:23.038Z,18.50
2022-09-04T06:53:23.033Z,18.51
2022-09-04T06:54:23.009Z,18.54
2022-09-04T06:55:22.988Z,18.57
2022-09-04T06:56:23.002Z,18.59
2022-09-04T06:57:22.983Z,18.62
2022-09-04T06:58:22.979Z,18.62
2022-09-04T06:59:22.979Z,18.64
2022-09-04T07:00:23.659Z,18.66
2022-09-04T07:01:22.985Z,18.71
2022-09-04T07:02:23.055Z,18.72
2022-09-04T07:03:22.898Z,18.78
2022-09-04T07:04:22.900Z,18.79
2022-09-04T07:05:22.890Z,18.83
2022-09-04T07:06:22.860Z,18.84
2022-09-04T07:07:22.866Z,18.86
2022-09-04T07:08:22.951Z,18.89
2022-09-04T07:09:22.820Z,18.90
2022-09-04T07:10:22.855Z,18.94
2022-09-04T07:11:22.812Z,18.97
2022-09-04T07:12:22.778Z,19.02
2022-09-04T07:13:22.781Z,19.06
2022-09-04T07:14:22.773Z,19.10
2022-09-04T07:15:22.742Z,19.13
2022-09-04T07:16:22.784Z,19.17
2022-09-04T07:17:22.729Z,19.24
2022-09-04T07:18:22.758Z,19.31
2022-09-04T07:19:22.686Z,19.32
2022-09-04T07:20:22.796Z,19.34
2022-09-04T07:21:22.648Z,19.39
2022-09-04T07:22:23.671Z,19.43
2022-09-04T07:23:22.679Z,19.45
2022-09-04T07:24:22.618Z,19.47
2022-09-04T07:25:22.628Z,19.50
2022-09-04T07:26:22.587Z,19.53
2022-09-04T07:27:22.597Z,19.58
2022-09-04T07:28:22.601Z,19.62
2022-09-04T07:29:25.744Z,19.68
2022-09-04T07:30:22.548Z,19.70
2022-09-04T07:31:22.578Z,19.71
2022-09-04T07:32:22.528Z,19.78
2022-09-04T07:33:22.506Z,19.78
2022-09-04T07:34:22.531Z,19.79
2022-09-04T07:35:22.478Z,19.80
2022-09-04T07:36:26.379Z,19.82
2022-09-04T07:37:23.480Z,19.85
2022-09-04T07:38:22.471Z,19.87
2022-09-04T07:39:22.505Z,19.92
2022-09-04T07:40:22.425Z,19.95
2022-09-04T07:41:22.409Z,19.98
2022-09-04T07:42:22.399Z,20.00
2022-09-04T07:43:22.403Z,20.02
2022-09-04T07:44:22.352Z,20.05
2022-09-04T07:45:22.340Z,20.08
2022-09-04T07:46:22.461Z,20.12
2022-09-04T07:47:22.305Z,20.17
2022-09-04T07:48:22.380Z,20.20
2022-09-04T07:49:22.298Z,20.26
2022-09-04T07:50:22.285Z,20.31
2022-09-04T07:51:22.270Z,20.35
2022-09-04T07:52:22.261Z,20.37
2022-09-04T07:53:22.266Z,20.40
2022-09-04T07:54:22.336Z,20.44
2022-09-04T07:55:22.224Z,20.46
2022-09-04T07:56:22.218Z,20.48
2022-09-04T07:57:22.185Z,20.53
2022-09-04T07:58:22.178Z,20.54
2022-09-04T07:59:22.178Z,20.57
2022-09-04T08:00:22.142Z,20.58
2022-09-04T08:01:22.140Z,20.61
2022-09-04T08:02:22.146Z,20.63
2022-09-04T08:03:22.121Z,20.64
2022-09-04T08:04:22.114Z,20.66
2022-09-04T08:05:22.086Z,20.69
2022-09-04T08:06:22.074Z,20.72
2022-09-04T08:07:24.627Z,20.76
2022-09-04T08:08:22.049Z,20.79
2022-09-04T08:09:22.058Z,20.81
2022-09-04T08:10:22.013Z,20.85
2022-09-04T08:11:22.008Z,20.90
2022-09-04T08:12:21.994Z,20.93
2022-09-04T08:13:21.978Z,20.98
2022-09-04T08:14:21.998Z,21.05
2022-09-04T08:15:22.141Z,21.09
2022-09-04T08:16:21.953Z,21.08
2022-09-04T08:17:21.923Z,21.12
2022-09-04T08:18:21.933Z,21.13
2022-09-04T08:19:21.922Z,21.18
2022-09-04T08:20:21.897Z,21.22
2022-09-04T08:21:21.877Z,21.26
2022-09-04T08:22:25.043Z,21.27
2022-09-04T08:23:22.847Z,21.31
2022-09-04T08:24:21.853Z,21.34
2022-09-04T08:25:21.835Z,21.34
2022-09-04T08:26:21.815Z,21.31
2022-09-04T08:27:21.809Z,21.34
2022-09-04T08:28:21.795Z,21.37
2022-09-04T08:29:21.764Z,21.40
2022-09-04T08:30:21.753Z,21.40
2022-09-04T08:31:21.775Z,21.45
2022-09-04T08:32:21.726Z,21.46
2022-09-04T08:33:21.700Z,21.49
2022-09-04T08:34:21.713Z,21.53
2022-09-04T08:35:21.686Z,21.59
2022-09-04T08:36:21.663Z,21.64
2022-09-04T08:37:21.691Z,21.67
2022-09-04T08:38:21.665Z,21.70
2022-09-04T08:39:21.718Z,21.71
2022-09-04T08:40:21.672Z,21.75
2022-09-04T08:41:21.615Z,21.77
2022-09-04T08:42:21.582Z,21.81
2022-09-04T08:43:21.570Z,21.81
2022-09-04T08:44:21.613Z,21.82
2022-09-04T08:45:21.555Z,21.85
2022-09-04T08:46:23.940Z,21.90
2022-09-04T08:47:21.534Z,21.91
2022-09-04T08:48:21.501Z,21.93
2022-09-04T08:49:21.516Z,21.96
2022-09-04T08:50:21.494Z,21.96
2022-09-04T08:51:21.473Z,21.98
2022-09-04T08:52:21.467Z,22.02
2022-09-04T08:53:21.463Z,22.01
2022-09-04T08:54:21.452Z,22.08
2022-09-04T08:55:21.437Z,22.12
2022-09-04T08:56:21.416Z,22.15
2022-09-04T08:57:21.412Z,22.17
2022-09-04T08:58:21.390Z,22.20
2022-09-04T08:59:21.388Z,22.24
2022-09-04T09:00:21.368Z,22.26
2022-09-04T09:01:21.477Z,22.30
2022-09-04T09:02:21.395Z,22.31
2022-09-04T09:03:21.324Z,22.33
2022-09-04T09:04:21.333Z,22.36
2022-09-04T09:05:21.291Z,22.41
2022-09-04T09:06:21.284Z,22.46
2022-09-04T09:07:21.264Z,22.51
2022-09-04T09:08:21.274Z,22.56
2022-09-04T09:09:21.261Z,22.60
2022-09-04T09:10:21.234Z,22.63
2022-09-04T09:11:21.224Z,22.67
2022-09-04T09:12:21.203Z,22.64
2022-09-04T09:13:21.180Z,22.63
2022-09-04T09:14:21.202Z,22.60
2022-09-04T09:15:21.191Z,22.61
2022-09-04T09:16:21.205Z,22.61
2022-09-04T09:17:21.508Z,22.63
2022-09-04T09:18:22.195Z,22.64
2022-09-04T09:19:21.112Z,22.67
2022-09-04T09:20:21.169Z,22.64
2022-09-04T09:21:21.094Z,22.66
2022-09-04T09:22:21.070Z,22.64
2022-09-04T09:23:21.114Z,22.66
2022-09-04T09:24:21.067Z,22.67
2022-09-04T09:25:21.247Z,22.70
2022-09-04T09:26:21.039Z,22.75
2022-09-04T09:27:21.022Z,22.76
2022-09-04T09:28:21.030Z,22.79
2022-09-04T09:29:20.980Z,22.78
2022-09-04T09:30:21.002Z,22.82
2022-09-04T09:31:21.102Z,22.86
2022-09-04T09:32:20.937Z,22.93
2022-09-04T09:33:21.001Z,22.96
2022-09-04T09:34:20.918Z,23.03
2022-09-04T09:35:20.909Z,23.07
2022-09-04T09:36:20.905Z,23.16
2022-09-04T09:37:20.892Z,23.19
2022-09-04T09:38:20.873Z,23.21
2022-09-04T09:39:20.883Z,23.23
2022-09-04T09:40:20.862Z,23.26
2022-09-04T09:41:20.819Z,23.29
2022-09-04T09:42:20.823Z,23.29
2022-09-04T09:43:20.908Z,23.29
2022-09-04T09:44:20.944Z,23.26
2022-09-04T09:45:20.787Z,23.29
2022-09-04T09:46:20.832Z,23.34
2022-09-04T09:47:20.760Z,23.32
2022-09-04T09:48:20.753Z,23.23
2022-09-04T09:49:20.742Z,23.23
2022-09-04T09:50:20.727Z,23.26
2022-09-04T09:51:20.688Z,23.34
2022-09-04T09:52:20.688Z,23.35
2022-09-04T09:53:20.725Z,23.37
2022-09-04T09:54:20.663Z,23.41
2022-09-04T09:55:20.671Z,23.44
2022-09-04T09:56:20.641Z,23.47
2022-09-04T09:57:20.642Z,23.50
2022-09-04T09:58:21.622Z,23.50
2022-09-04T09:59:20.593Z,23.56
2022-09-04T10:00:20.609Z,23.57
2022-09-04T10:01:20.585Z,23.60
2022-09-04T10:02:20.599Z,23.62
2022-09-04T10:03:20.554Z,23.64
2022-09-04T10:04:20.552Z,23.69
2022-09-04T10:05:20.528Z,23.75
2022-09-04T10:06:20.511Z,23.81
2022-09-04T10:07:20.500Z,23.84
2022-09-04T10:08:31.774Z,23.86
2022-09-04T10:09:21.462Z,23.82
2022-09-04T10:10:20.472Z,23.82
2022-09-04T10:11:20.464Z,23.82
2022-09-04T10:12:20.418Z,23.87
2022-09-04T10:13:20.459Z,23.87
2022-09-04T10:14:24.908Z,23.87
2022-09-04T10:15:20.411Z,23.92
2022-09-04T10:16:20.426Z,23.93
2022-09-04T10:17:20.362Z,23.97
2022-09-04T10:18:20.362Z,23.99
2022-09-04T10:19:20.339Z,24.02
2022-09-04T10:20:20.343Z,24.00
2022-09-04T10:21:20.297Z,24.02
2022-09-04T10:22:20.295Z,24.02
2022-09-04T10:23:20.351Z,23.99
2022-09-04T10:24:20.258Z,24.00
2022-09-04T10:25:20.277Z,24.04
2022-09-04T10:26:20.233Z,24.04
2022-09-04T10:27:20.429Z,24.04
2022-09-04T10:28:20.207Z,24.11
2022-09-04T10:29:20.197Z,24.09
2022-09-04T10:30:20.263Z,24.12
2022-09-04T10:31:20.181Z,24.16
2022-09-04T10:32:20.180Z,24.18
2022-09-04T10:33:20.152Z,24.21
2022-09-04T10:34:20.140Z,24.26
2022-09-04T10:35:20.141Z,24.31
2022-09-04T10:36:20.110Z,24.34
2022-09-04T10:37:20.110Z,24.41
2022-09-04T10:38:20.090Z,24.46
2022-09-04T10:39:20.122Z,24.49
2022-09-04T10:40:20.084Z,24.52
2022-09-04T10:41:20.039Z,24.53
2022-09-04T10:42:20.043Z,24.56
2022-09-04T10:43:20.099Z,24.56
2022-09-04T10:44:20.022Z,24.55
2022-09-04T10:45:20.021Z,24.55
2022-09-04T10:46:22.918Z,24.52
2022-09-04T10:47:19.965Z,24.53
2022-09-04T10:48:19.937Z,24.53
2022-09-04T10:49:19.940Z,24.56
2022-09-04T10:50:19.927Z,24.63
2022-09-04T10:51:19.906Z,24.68
2022-09-04T10:52:19.886Z,24.71
2022-09-04T10:53:19.984Z,24.77
2022-09-04T10:54:19.865Z,24.74
2022-09-04T10:55:19.880Z,24.75
2022-09-04T10:56:19.835Z,24.75
2022-09-04T10:57:19.849Z,24.71
2022-09-04T10:58:19.823Z,24.68
2022-09-04T10:59:19.808Z,24.67
2022-09-04T11:00:19.789Z,24.70
2022-09-04T11:01:19.819Z,24.75
2022-09-04T11:02:19.810Z,24.82
2022-09-04T11:03:19.781Z,24.84
2022-09-04T11:04:19.727Z,24.90
2022-09-04T11:05:19.746Z,24.94
2022-09-04T11:06:19.710Z,24.98
2022-09-04T11:07:19.687Z,25.01
2022-09-04T11:08:19.692Z,24.98
2022-09-04T11:09:19.678Z,24.94
2022-09-04T11:10:19.658Z,24.93
2022-09-04T11:11:19.636Z,24.89
2022-09-04T11:12:19.623Z,24.83
2022-09-04T11:13:19.699Z,24.80
2022-09-04T11:14:19.597Z,24.74
2022-09-04T11:15:19.631Z,24.68
2022-09-04T11:16:19.611Z,24.68
2022-09-04T11:17:19.758Z,24.64
2022-09-04T11:18:19.569Z,24.64
2022-09-04T11:19:19.565Z,24.67
2022-09-04T11:20:19.604Z,24.70
2022-09-04T11:21:19.519Z,24.77
2022-09-04T11:22:19.511Z,24.82
2022-09-04T11:23:19.485Z,24.89
2022-09-04T11:24:19.489Z,24.98
2022-09-04T11:25:19.487Z,25.04
2022-09-04T11:26:19.454Z,25.16
2022-09-04T11:27:19.427Z,25.24
2022-09-04T11:28:19.415Z,25.31
2022-09-04T11:29:19.409Z,25.38
2022-09-04T11:30:19.397Z,25.35
2022-09-04T11:31:19.430Z,25.41
2022-09-04T11:32:19.366Z,25.42
2022-09-04T11:33:19.366Z,25.41
2022-09-04T11:34:19.367Z,25.41
2022-09-04T11:35:19.381Z,25.42
2022-09-04T11:36:19.325Z,25.44
2022-09-04T11:37:19.312Z,25.45
2022-09-04T11:38:19.301Z,25.45
2022-09-04T11:39:19.318Z,25.45
2022-09-04T11:40:19.300Z,25.44
2022-09-04T11:41:19.269Z,25.36
2022-09-04T11:42:19.225Z,25.31
2022-09-04T11:43:19.239Z,25.29
2022-09-04T11:44:19.219Z,25.23
2022-09-04T11:45:19.204Z,25.17
2022-09-04T11:46:19.196Z,25.14
2022-09-04T11:47:19.188Z,25.11
2022-09-04T11:48:19.156Z,25.08
2022-09-04T11:49:19.189Z,25.05
2022-09-04T11:50:19.158Z,24.99
2022-09-04T11:51:19.134Z,24.97
2022-09-04T11:52:26.308Z,24.93
2022-09-04T11:53:19.176Z,24.89
2022-09-04T11:54:20.865Z,24.87
2022-09-04T11:55:19.080Z,24.86
2022-09-04T11:56:19.054Z,24.89
2022-09-04T11:57:19.078Z,24.92
2022-09-04T11:58:19.025Z,24.92
2022-09-04T11:59:19.022Z,24.90
2022-09-04T12:00:19.037Z,24.92
2022-09-04T12:01:19.021Z,24.92
2022-09-04T12:02:19.063Z,24.93
2022-09-04T12:03:19.054Z,24.94
2022-09-04T12:04:18.981Z,24.97
2022-09-04T12:05:18.971Z,24.97
2022-09-04T12:06:18.924Z,24.94
2022-09-04T12:07:18.926Z,24.94
2022-09-04T12:08:18.916Z,24.92
2022-09-04T12:09:18.907Z,24.90
2022-09-04T12:10:18.915Z,24.90
2022-09-04T12:11:18.868Z,24.90
2022-09-04T12:12:18.843Z,24.94
2022-09-04T12:13:18.885Z,24.93
2022-09-04T12:14:18.815Z,24.97
2022-09-04T12:15:18.845Z,24.98
2022-09-04T12:16:18.832Z,24.99
2022-09-04T12:17:18.804Z,24.99
2022-09-04T12:18:18.834Z,25.02
2022-09-04T12:19:18.755Z,25.04
2022-09-04T12:20:18.794Z,25.07
2022-09-04T12:21:18.753Z,25.04
2022-09-04T12:22:18.736Z,25.04
2022-09-04T12:23:18.758Z,25.04
2022-09-04T12:24:18.684Z,25.04
2022-09-04T12:25:18.706Z,25.04
2022-09-04T12:26:18.685Z,25.05
2022-09-04T12:27:18.685Z,25.04
2022-09-04T12:28:18.676Z,25.04
2022-09-04T12:29:18.638Z,24.99
2022-09-04T12:30:18.637Z,24.98
2022-09-04T12:31:18.674Z,24.98
2022-09-04T12:32:18.604Z,24.97
2022-09-04T12:33:18.711Z,24.98
2022-09-04T12:34:18.588Z,25.01
2022-09-04T12:35:18.583Z,24.99
2022-09-04T12:36:18.552Z,25.01
2022-09-04T12:37:18.556Z,25.04
2022-09-04T12:38:18.521Z,25.07
2022-09-04T12:39:18.510Z,25.09
2022-09-04T12:40:18.507Z,25.12
2022-09-04T12:41:18.473Z,25.19
2022-09-04T12:42:18.483Z,25.23
2022-09-04T12:43:18.542Z,25.24
2022-09-04T12:44:18.473Z,25.26
2022-09-04T12:45:18.517Z,25.27
2022-09-04T12:46:18.467Z,25.31
2022-09-04T12:47:18.394Z,25.38
2022-09-04T12:48:18.407Z,25.39
2022-09-04T12:49:18.406Z,25.42
2022-09-04T12:50:18.363Z,25.48
2022-09-04T12:51:18.353Z,25.48
2022-09-04T12:52:18.346Z,25.51